Time;durP1;ratioP1;P1;durP2;ratioP2;P2;SDS_P1;SDS_P2;PMS_P1;PMS_P2;Temp;Humidity;BMP_temperature;BMP_pressure;BME280_temperature;BME280_humidity;BME280_pressure;Samples;Min_cycle;Max_cycle;Signal;HPM_P1;HPM_P2
2023/07/07 00:00:43;;;;;;;18.85;11.25;;;13.10;99.90;;;;;;4977693;28;20053;-73
2023/07/07 00:03:09;;;;;;;13.57;11.02;;;13.00;99.90;;;;;;4978299;28;20046;-72
2023/07/07 00:05:35;;;;;;;14.07;11.18;;;12.90;99.90;;;;;;4976738;28;20681;-72
2023/07/07 00:08:01;;;;;;;12.98;11.57;;;12.80;99.90;;;;;;4976364;28;20433;-72
2023/07/07 00:10:26;;;;;;;12.90;11.50;;;12.90;99.90;;;;;;4975330;28;20538;-72
2023/07/07 00:12:52;;;;;;;15.30;12.70;;;12.80;99.90;;;;;;4959153;28;20093;-71
2023/07/07 00:15:18;;;;;;;17.25;12.10;;;12.70;99.90;;;;;;4974923;28;20061;-72
2023/07/07 00:17:47;;;;;;;18.70;12.45;;;12.70;99.90;;;;;;4957791;28;20064;-72
2023/07/07 00:20:14;;;;;;;17.00;11.70;;;12.70;99.90;;;;;;4958825;28;20142;-72
2023/07/07 00:22:40;;;;;;;14.70;10.70;;;12.60;99.90;;;;;;4976311;28;20043;-70
2023/07/07 00:25:07;;;;;;;16.38;10.10;;;12.60;99.90;;;;;;4942997;28;20084;-71
2023/07/07 00:27:34;;;;;;;15.77;11.00;;;12.80;99.90;;;;;;4975024;28;20038;-72
2023/07/07 00:30:00;;;;;;;14.57;11.05;;;12.90;99.90;;;;;;4974628;28;20516;-72
2023/07/07 00:32:26;;;;;;;19.75;12.52;;;12.90;99.90;;;;;;4959397;28;20129;-72
2023/07/07 00:34:51;;;;;;;14.63;11.93;;;12.70;99.90;;;;;;4975348;28;20547;-72
2023/07/07 00:37:17;;;;;;;11.20;10.00;;;12.60;99.90;;;;;;4976639;28;20050;-72
2023/07/07 00:39:43;;;;;;;11.25;9.73;;;12.60;99.90;;;;;;4974605;28;20462;-74
2023/07/07 00:42:10;;;;;;;15.50;10.48;;;12.70;99.90;;;;;;4976257;28;20840;-72
2023/07/07 00:45:10;;;;;;;12.90;10.20;;;12.90;99.90;;;;;;4976657;28;20463;-73
2023/07/07 00:47:42;;;;;;;11.77;10.07;;;13.00;99.90;;;;;;4959612;28;20049;-73
2023/07/07 00:50:09;;;;;;;11.85;10.38;;;12.90;99.90;;;;;;4977776;28;20573;-73
2023/07/07 00:52:36;;;;;;;12.27;10.48;;;12.90;99.90;;;;;;4978166;28;20158;-73
2023/07/07 00:55:03;;;;;;;16.23;10.57;;;12.90;99.90;;;;;;4977436;28;20086;-72
2023/07/07 00:57:28;;;;;;;14.68;11.07;;;12.90;99.90;;;;;;4976856;28;20601;-70
2023/07/07 00:59:54;;;;;;;14.68;10.73;;;12.70;99.90;;;;;;4975460;28;20049;-72
2023/07/07 01:02:24;;;;;;;13.60;11.30;;;12.60;99.90;;;;;;4973957;28;20410;-71
2023/07/07 01:04:57;;;;;;;16.67;11.90;;;12.70;99.90;;;;;;4974207;28;20061;-71
2023/07/07 01:07:28;;;;;;;17.45;11.57;;;12.60;99.90;;;;;;4974129;28;20081;-71
2023/07/07 01:09:54;;;;;;;14.25;11.63;;;12.50;99.90;;;;;;4975516;28;20331;-72
2023/07/07 01:12:19;;;;;;;13.40;11.35;;;12.60;99.90;;;;;;4973859;28;20129;-72
2023/07/07 01:14:47;;;;;;;14.63;12.23;;;12.60;99.90;;;;;;4957544;28;20073;-71
2023/07/07 01:17:47;;;;;;;16.98;12.57;;;12.50;99.90;;;;;;4974178;28;20034;-70
2023/07/07 01:20:41;;;;;;;20.30;13.48;;;12.50;99.90;;;;;;4973761;28;20056;-70
2023/07/07 01:23:13;;;;;;;21.98;14.70;;;12.40;99.90;;;;;;4953376;28;20534;-72
2023/07/07 01:26:14;;;;;;;19.73;13.40;;;12.30;99.90;;;;;;4974568;28;20334;-73
2023/07/07 01:29:00;;;;;;;17.00;12.60;;;12.30;99.90;;;;;;4975141;28;20650;-71
2023/07/07 01:31:32;;;;;;;15.88;14.10;;;12.20;99.90;;;;;;4974877;28;20156;-71
2023/07/07 01:34:02;;;;;;;15.65;13.88;;;12.20;99.90;;;;;;4975750;28;20174;-71
2023/07/07 01:36:28;;;;;;;17.63;14.43;;;12.20;99.90;;;;;;4943908;28;20046;-72
2023/07/07 01:38:53;;;;;;;18.95;14.35;;;12.10;99.90;;;;;;4959912;28;20050;-71
2023/07/07 01:41:39;;;;;;;19.20;14.85;;;12.10;99.90;;;;;;4976599;28;20639;-73
2023/07/07 01:44:16;;;;;;;16.50;14.30;;;12.00;99.90;;;;;;4960217;28;20114;-70
2023/07/07 01:46:54;;;;;;;17.73;15.00;;;12.10;99.90;;;;;;4978020;28;20541;-72
2023/07/07 01:49:28;;;;;;;17.23;15.27;;;12.20;99.90;;;;;;4974823;28;20081;-73
2023/07/07 01:51:57;;;;;;;17.38;15.23;;;12.10;99.90;;;;;;4974088;28;20069;-72
2023/07/07 01:54:25;;;;;;;21.55;15.48;;;12.20;99.90;;;;;;4972950;28;20054;-73
2023/07/07 01:56:53;;;;;;;21.58;16.63;;;12.20;99.90;;;;;;4973595;28;20050;-71
2023/07/07 01:59:19;;;;;;;19.83;16.08;;;12.20;99.90;;;;;;4974743;28;20840;-73
2023/07/07 02:01:45;;;;;;;20.00;16.95;;;12.30;99.90;;;;;;4975559;28;20050;-72
2023/07/07 02:04:11;;;;;;;18.23;15.63;;;12.30;99.90;;;;;;4974493;28;20054;-72
2023/07/07 02:06:37;;;;;;;18.63;15.77;;;12.40;99.90;;;;;;4973801;28;20042;-71
2023/07/07 02:09:02;;;;;;;18.75;16.42;;;12.50;99.90;;;;;;4958734;28;20042;-72
2023/07/07 02:11:28;;;;;;;19.58;16.38;;;12.50;99.90;;;;;;4960596;28;20082;-71
2023/07/07 02:13:54;;;;;;;20.13;16.10;;;12.60;99.90;;;;;;4960601;28;20053;-70
2023/07/07 02:16:19;;;;;;;23.08;16.00;;;12.60;99.90;;;;;;4961290;28;20097;-71
2023/07/07 02:18:48;;;;;;;17.25;14.55;;;12.50;99.90;;;;;;4976766;28;20038;-73
2023/07/07 02:21:15;;;;;;;16.02;13.88;;;12.50;99.90;;;;;;4977675;28;20405;-72
2023/07/07 02:23:42;;;;;;;15.50;13.68;;;12.60;99.90;;;;;;4976896;28;20072;-73
2023/07/07 02:26:07;;;;;;;18.33;14.25;;;12.60;99.90;;;;;;4944315;28;20149;-73
2023/07/07 02:28:33;;;;;;;17.23;14.13;;;12.70;99.90;;;;;;4960813;28;20707;-73
2023/07/07 02:30:59;;;;;;;17.15;13.90;;;12.70;99.90;;;;;;4960894;28;20211;-71
2023/07/07 02:33:31;;;;;;;18.02;15.02;;;12.70;99.90;;;;;;4976433;28;20477;-72
2023/07/07 02:36:01;;;;;;;16.98;14.07;;;12.80;99.90;;;;;;4978177;28;20510;-72
2023/07/07 02:38:28;;;;;;;16.90;13.75;;;12.80;99.90;;;;;;4975931;28;20063;-73
2023/07/07 02:40:54;;;;;;;16.45;14.65;;;12.80;99.90;;;;;;4976442;28;20046;-73
2023/07/07 02:43:19;;;;;;;17.75;14.23;;;12.60;99.90;;;;;;4978263;28;20050;-71
2023/07/07 02:45:45;;;;;;;17.27;15.32;;;12.60;99.90;;;;;;4975970;28;20046;-71
2023/07/07 02:48:11;;;;;;;17.20;14.55;;;12.60;99.90;;;;;;4975714;28;20233;-72
2023/07/07 02:50:36;;;;;;;20.92;15.02;;;12.60;99.90;;;;;;4976588;28;20039;-70
2023/07/07 02:53:02;;;;;;;18.08;16.08;;;12.60;99.90;;;;;;4976925;28;20521;-71
2023/07/07 02:55:28;;;;;;;19.85;16.73;;;12.50;99.90;;;;;;4978741;28;20077;-73
2023/07/07 02:57:54;;;;;;;20.52;15.80;;;12.60;99.90;;;;;;4978067;28;20061;-71
2023/07/07 03:00:19;;;;;;;18.33;15.25;;;12.60;99.90;;;;;;4978130;28;20047;-72
2023/07/07 03:02:46;;;;;;;22.05;16.67;;;12.60;99.90;;;;;;4960899;28;20177;-71
2023/07/07 03:05:12;;;;;;;21.60;16.05;;;12.60;99.90;;;;;;4976955;28;20046;-71
2023/07/07 03:07:38;;;;;;;22.88;17.52;;;12.70;99.90;;;;;;4959314;28;20418;-72
2023/07/07 03:10:06;;;;;;;22.48;17.45;;;12.70;99.90;;;;;;4975815;28;20046;-70
2023/07/07 03:12:32;;;;;;;18.83;16.83;;;12.60;99.90;;;;;;4976506;28;20039;-70
2023/07/07 03:14:58;;;;;;;20.45;17.48;;;12.60;99.90;;;;;;4960176;28;20093;-71
2023/07/07 03:17:23;;;;;;;20.75;17.50;;;12.70;99.90;;;;;;4975454;28;20101;-72
2023/07/07 03:19:49;;;;;;;21.70;18.60;;;12.70;99.90;;;;;;4975495;28;20138;-73
2023/07/07 03:22:15;;;;;;;20.63;16.80;;;12.70;99.90;;;;;;4977515;28;20060;-70
2023/07/07 03:24:41;;;;;;;22.30;17.58;;;12.70;99.90;;;;;;4960144;28;20479;-70
2023/07/07 03:27:06;;;;;;;22.85;17.23;;;12.70;99.90;;;;;;4976305;28;20105;-72
2023/07/07 03:29:32;;;;;;;22.67;18.15;;;12.70;99.90;;;;;;4976667;28;20034;-72
2023/07/07 03:31:58;;;;;;;21.08;18.38;;;12.80;99.90;;;;;;4977223;28;20078;-71
2023/07/07 03:34:25;;;;;;;22.30;18.35;;;12.80;99.90;;;;;;4979331;28;20038;-71
2023/07/07 03:36:51;;;;;;;22.15;17.90;;;12.80;99.90;;;;;;4961899;28;20054;-70
2023/07/07 03:39:17;;;;;;;25.15;18.67;;;12.70;99.90;;;;;;4961953;28;20065;-71
2023/07/07 03:41:43;;;;;;;23.20;17.25;;;12.80;99.90;;;;;;4979710;28;20072;-72
2023/07/07 03:44:08;;;;;;;22.42;18.75;;;12.90;99.90;;;;;;4977474;28;20730;-72
2023/07/07 03:46:34;;;;;;;25.60;19.70;;;12.80;99.90;;;;;;4978099;28;20049;-73
2023/07/07 03:49:00;;;;;;;23.27;17.75;;;12.80;99.90;;;;;;4978332;28;20042;-72
2023/07/07 03:51:28;;;;;;;23.50;19.33;;;12.80;99.90;;;;;;4979774;28;20038;-71
2023/07/07 03:53:55;;;;;;;23.50;18.33;;;12.80;99.90;;;;;;4979050;28;20056;-73
2023/07/07 03:56:21;;;;;;;22.17;18.63;;;12.80;99.90;;;;;;4983393;28;20081;-69
2023/07/07 03:58:47;;;;;;;21.95;18.70;;;12.80;99.90;;;;;;4986808;28;20777;-73
2023/07/07 04:01:14;;;;;;;25.17;19.45;;;12.80;99.90;;;;;;4984910;28;20773;-74
2023/07/07 04:03:40;;;;;;;24.48;18.52;;;12.80;99.90;;;;;;4984977;28;20538;-72
2023/07/07 04:06:06;;;;;;;21.98;18.85;;;12.90;99.90;;;;;;4984260;28;20060;-73
2023/07/07 04:08:33;;;;;;;24.27;19.10;;;12.90;99.90;;;;;;4983213;28;20129;-71
2023/07/07 04:11:33;;;;;;;25.40;18.42;;;12.90;99.90;;;;;;4963104;28;20628;-71
2023/07/07 04:13:58;;;;;;;28.95;19.73;;;12.90;99.90;;;;;;4978969;28;20505;-73
2023/07/07 04:16:25;;;;;;;23.33;19.17;;;12.90;99.90;;;;;;4978229;28;20046;-70
2023/07/07 04:18:54;;;;;;;27.33;18.60;;;12.90;99.90;;;;;;4964543;28;20047;-71
2023/07/07 04:21:26;;;;;;;25.48;18.60;;;13.00;99.90;;;;;;4984373;28;20038;-72
2023/07/07 04:23:54;;;;;;;24.27;18.42;;;13.00;99.90;;;;;;4983345;28;20052;-72
2023/07/07 04:26:21;;;;;;;24.00;18.92;;;13.00;99.90;;;;;;4983232;28;20058;-72
2023/07/07 04:28:47;;;;;;;22.20;18.40;;;13.10;99.90;;;;;;4983808;28;20038;-71
2023/07/07 04:31:13;;;;;;;21.75;17.75;;;13.10;99.90;;;;;;4979470;28;20042;-72
2023/07/07 04:33:40;;;;;;;22.25;18.38;;;13.20;99.90;;;;;;4961741;28;20502;-73
2023/07/07 04:36:08;;;;;;;24.65;18.45;;;13.30;99.90;;;;;;4978859;28;20034;-73
2023/07/07 04:38:34;;;;;;;23.80;17.25;;;13.30;99.90;;;;;;4976497;28;20521;-71
2023/07/07 04:41:07;;;;;;;23.58;17.85;;;13.40;99.90;;;;;;4980012;28;20050;-73
2023/07/07 04:43:35;;;;;;;22.02;18.08;;;13.50;99.90;;;;;;4982527;28;20054;-73
2023/07/07 04:46:01;;;;;;;22.77;17.00;;;13.50;99.90;;;;;;4950436;28;20391;-71
2023/07/07 04:48:27;;;;;;;21.23;16.75;;;13.70;99.90;;;;;;4982310;28;20038;-71
2023/07/07 04:51:08;;;;;;;24.50;17.30;;;13.80;99.90;;;;;;4983359;28;20046;-71
2023/07/07 04:53:35;;;;;;;21.27;17.15;;;13.90;99.90;;;;;;4959131;28;20141;-71
2023/07/07 04:56:02;;;;;;;23.00;16.75;;;13.90;99.90;;;;;;4976382;28;20042;-72
2023/07/07 04:58:28;;;;;;;22.98;16.98;;;13.90;99.90;;;;;;4975805;28;20431;-71
2023/07/07 05:01:12;;;;;;;20.83;16.75;;;14.00;99.90;;;;;;4975207;28;20042;-72
2023/07/07 05:03:39;;;;;;;20.88;16.20;;;14.00;99.90;;;;;;4974976;28;20601;-71
2023/07/07 05:06:06;;;;;;;19.73;16.90;;;14.00;99.90;;;;;;4975734;28;20046;-74
2023/07/07 05:08:34;;;;;;;21.52;17.15;;;14.10;98.10;;;;;;4976208;28;20038;-71
2023/07/07 05:10:59;;;;;;;19.65;15.82;;;14.20;99.90;;;;;;4959327;28;20089;-71
2023/07/07 05:13:25;;;;;;;23.60;16.40;;;14.30;70.20;;;;;;4975016;28;20150;-72
2023/07/07 05:15:59;;;;;;;20.80;16.23;;;14.40;42.70;;;;;;4975673;28;20046;-73
2023/07/07 05:18:25;;;;;;;22.65;16.92;;;14.50;1.00;;;;;;4976012;28;20039;-71
2023/07/07 05:20:50;;;;;;;24.50;18.13;;;14.60;1.00;;;;;;4960586;28;20469;-72
2023/07/07 05:23:16;;;;;;;24.77;17.38;;;14.70;1.00;;;;;;4976994;28;20426;-71
2023/07/07 05:25:44;;;;;;;25.67;17.08;;;14.80;1.00;;;;;;4977474;28;20042;-72
2023/07/07 05:28:10;;;;;;;21.27;16.35;;;14.90;1.00;;;;;;4975915;28;20035;-73
2023/07/07 05:30:38;;;;;;;21.63;15.70;;;15.10;1.00;;;;;;4977170;28;20697;-71
2023/07/07 05:33:04;;;;;;;19.83;14.45;;;15.50;1.00;;;;;;4979790;28;20338;-72
2023/07/07 05:35:30;;;;;;;18.85;13.80;;;15.90;99.90;;;;;;4980539;28;20651;-71
2023/07/07 05:37:56;;;;;;;19.00;12.75;;;16.30;99.90;;;;;;4977897;28;20057;-74
2023/07/07 05:40:21;;;;;;;20.45;12.88;;;16.60;99.90;;;;;;4980186;28;20114;-71
2023/07/07 05:42:47;;;;;;;19.45;12.57;;;16.80;99.90;;;;;;4979479;28;20035;-73
2023/07/07 05:45:13;;;;;;;16.73;12.32;;;17.20;99.90;;;;;;4982437;28;20117;-73
2023/07/07 05:47:38;;;;;;;22.15;12.15;;;17.40;99.90;;;;;;4982601;28;20054;-72
2023/07/07 05:50:05;;;;;;;15.88;11.10;;;17.60;99.90;;;;;;4982466;28;20560;-70
2023/07/07 05:52:30;;;;;;;14.82;11.30;;;17.70;99.90;;;;;;4983043;28;20057;-73
2023/07/07 05:54:57;;;;;;;19.33;12.00;;;17.90;99.90;;;;;;4983019;28;20050;-73
2023/07/07 05:57:23;;;;;;;15.90;10.30;;;18.00;99.90;;;;;;4982486;28;20046;-72
2023/07/07 05:59:49;;;;;;;13.00;10.43;;;18.10;99.90;;;;;;4980082;28;20038;-73
2023/07/07 06:02:15;;;;;;;17.90;10.30;;;18.20;33.80;;;;;;4980168;28;20643;-73
2023/07/07 06:04:41;;;;;;;16.42;10.07;;;18.30;1.00;;;;;;4977660;28;20153;-72
2023/07/07 06:07:07;;;;;;;13.00;10.15;;;18.40;1.00;;;;;;4979400;28;20136;-72
2023/07/07 06:09:33;;;;;;;13.77;9.00;;;18.50;1.00;;;;;;4961126;28;20458;-72
2023/07/07 06:11:59;;;;;;;14.32;9.50;;;18.60;99.90;;;;;;4961193;28;20305;-71
2023/07/07 06:14:25;;;;;;;16.17;9.57;;;18.70;99.90;;;;;;4978309;28;20042;-72
2023/07/07 06:16:51;;;;;;;16.35;9.80;;;18.80;99.90;;;;;;4976823;28;20440;-72
2023/07/07 06:19:16;;;;;;;11.85;8.90;;;18.90;99.90;;;;;;4960798;28;20462;-73
2023/07/07 06:21:42;;;;;;;11.50;9.18;;;19.00;99.90;;;;;;4978356;28;20038;-72
2023/07/07 06:24:08;;;;;;;12.50;8.30;;;19.10;99.90;;;;;;4977682;28;20568;-72
2023/07/07 06:26:33;;;;;;;13.00;8.60;;;19.10;99.90;;;;;;4962503;28;20536;-72
2023/07/07 06:28:59;;;;;;;13.65;7.88;;;19.20;99.90;;;;;;4979884;28;20109;-72
2023/07/07 06:31:24;;;;;;;11.10;7.82;;;19.30;99.90;;;;;;4980277;28;20134;-72
2023/07/07 06:33:51;;;;;;;11.40;8.02;;;19.40;99.90;;;;;;4978626;28;20567;-74
2023/07/07 06:36:17;;;;;;;11.90;7.30;;;19.50;99.90;;;;;;4978746;28;20094;-73
2023/07/07 06:38:43;;;;;;;10.98;7.18;;;19.70;99.90;;;;;;4977884;28;20094;-72
2023/07/07 06:41:21;;;;;;;11.75;7.15;;;19.70;99.90;;;;;;4992382;28;20323;-72
2023/07/07 06:43:47;;;;;;;14.38;7.05;;;19.80;19.00;;;;;;4977613;28;20521;-72
2023/07/07 06:46:15;;;;;;;9.55;6.43;;;19.90;82.10;;;;;;4992686;28;20052;-72
2023/07/07 06:48:40;;;;;;;10.43;6.72;;;20.00;95.90;;;;;;4978683;28;20050;-73
2023/07/07 06:51:06;;;;;;;9.85;6.80;;;20.10;87.00;;;;;;4978175;28;20065;-72
2023/07/07 06:53:32;;;;;;;10.13;6.55;;;20.30;99.90;;;;;;4961927;28;20141;-72
2023/07/07 06:55:57;;;;;;;8.82;5.70;;;20.30;95.60;;;;;;4961310;28;20054;-72
2023/07/07 06:58:24;;;;;;;9.82;5.70;;;20.50;79.30;;;;;;4992559;28;20683;-74
2023/07/07 07:00:49;;;;;;;8.27;5.18;;;20.70;13.00;;;;;;4992718;28;20053;-73
2023/07/07 07:03:15;;;;;;;8.52;5.20;;;20.80;1.00;;;;;;4992254;28;20042;-73
2023/07/07 07:05:41;;;;;;;7.63;4.50;;;20.90;1.00;;;;;;4976818;28;20050;-72
2023/07/07 07:08:07;;;;;;;7.63;4.88;;;21.00;1.00;;;;;;4975709;28;20030;-71
2023/07/07 07:10:33;;;;;;;8.20;4.60;;;21.10;99.90;;;;;;4976442;28;20463;-73
2023/07/07 07:12:58;;;;;;;9.52;4.40;;;21.30;99.90;;;;;;4976570;28;20045;-74
2023/07/07 07:15:24;;;;;;;7.63;4.28;;;21.30;99.90;;;;;;4975000;28;20070;-73
2023/07/07 07:17:50;;;;;;;9.65;5.05;;;21.60;99.90;;;;;;4975880;28;20806;-73
2023/07/07 07:20:17;;;;;;;9.35;4.43;;;21.60;99.90;;;;;;4974884;28;20572;-73
2023/07/07 07:22:43;;;;;;;9.32;4.45;;;21.50;99.90;;;;;;4976412;28;20513;-74
2023/07/07 07:25:09;;;;;;;7.18;4.18;;;21.50;99.90;;;;;;4991270;28;20085;-73
2023/07/07 07:27:37;;;;;;;6.57;3.92;;;21.60;99.90;;;;;;4958628;28;20510;-73
2023/07/07 07:30:04;;;;;;;7.25;4.05;;;21.70;99.90;;;;;;4976082;28;20132;-72
2023/07/07 07:32:30;;;;;;;8.57;3.55;;;21.90;99.90;;;;;;4975234;28;20422;-72
2023/07/07 07:34:55;;;;;;;6.82;3.50;;;22.10;99.90;;;;;;4975974;28;20049;-75
2023/07/07 07:37:21;;;;;;;9.38;3.50;;;22.20;99.90;;;;;;4958122;28;20457;-71
2023/07/07 07:39:47;;;;;;;5.78;3.33;;;22.40;99.90;;;;;;4976495;28;20081;-73
2023/07/07 07:42:13;;;;;;;5.10;3.00;;;22.40;99.90;;;;;;4976356;28;20042;-71
2023/07/07 07:44:39;;;;;;;7.78;2.95;;;22.40;95.50;;;;;;4975787;28;20517;-74
2023/07/07 07:47:05;;;;;;;8.32;2.53;;;22.40;82.90;;;;;;4976328;28;20690;-74
2023/07/07 07:49:31;;;;;;;4.85;2.45;;;22.40;99.90;;;;;;4976707;28;20832;-74
2023/07/07 07:51:57;;;;;;;6.97;2.45;;;22.50;10.40;;;;;;4975375;28;20045;-71
2023/07/07 07:54:24;;;;;;;5.07;2.50;;;22.70;40.20;;;;;;4975721;28;20050;-74
2023/07/07 07:56:50;;;;;;;6.45;2.65;;;22.90;23.60;;;;;;4978489;28;20049;-73
2023/07/07 07:59:16;;;;;;;7.00;2.35;;;23.00;1.00;;;;;;4977865;28;20522;-72
2023/07/07 08:01:41;;;;;;;4.88;1.83;;;23.10;1.00;;;;;;4991665;28;20057;-73
2023/07/07 08:04:07;;;;;;;4.57;2.15;;;23.30;1.00;;;;;;4990828;28;20056;-73
2023/07/07 08:06:34;;;;;;;5.90;2.08;;;23.40;1.00;;;;;;4974757;28;20053;-73
2023/07/07 08:09:00;;;;;;;5.45;1.92;;;23.50;1.00;;;;;;4990136;28;20376;-75
2023/07/07 08:11:41;;;;;;;4.68;1.70;;;23.60;1.00;;;;;;4976170;28;20205;-73
2023/07/07 08:14:12;;;;;;;4.45;1.30;;;23.80;1.00;;;;;;4976236;28;20093;-72
2023/07/07 08:16:38;;;;;;;4.53;1.17;;;24.10;1.00;;;;;;4976461;28;20130;-73
2023/07/07 08:19:04;;;;;;;4.05;1.30;;;24.30;99.90;;;;;;4978409;28;20470;-72
2023/07/07 08:21:30;;;;;;;5.90;1.50;;;24.20;99.90;;;;;;4982314;28;20808;-73
2023/07/07 08:23:56;;;;;;;3.83;1.38;;;24.20;99.90;;;;;;4982796;28;20090;-71
2023/07/07 08:26:22;;;;;;;4.03;1.42;;;24.30;99.90;;;;;;4983458;28;20259;-73
2023/07/07 08:28:48;;;;;;;7.60;1.45;;;24.30;99.90;;;;;;4991781;28;20789;-73
2023/07/07 08:31:14;;;;;;;4.68;1.40;;;24.20;99.90;;;;;;4975933;28;20081;-71
2023/07/07 08:33:43;;;;;;;6.90;1.92;;;24.30;99.90;;;;;;4989835;28;20639;-72
2023/07/07 08:36:09;;;;;;;4.18;1.33;;;24.40;99.90;;;;;;4974442;28;20057;-71
2023/07/07 08:38:35;;;;;;;3.22;1.10;;;24.40;99.90;;;;;;4973441;28;20050;-73
2023/07/07 08:41:01;;;;;;;3.30;0.98;;;24.70;99.90;;;;;;4975875;28;20042;-72
2023/07/07 08:43:29;;;;;;;4.28;1.02;;;24.80;99.90;;;;;;4974635;28;20042;-73
2023/07/07 08:46:22;;;;;;;3.15;0.70;;;25.10;99.90;;;;;;4975034;28;20050;-74
2023/07/07 08:49:20;;;;;;;2.67;1.10;;;24.90;99.90;;;;;;4979986;28;20038;-73
2023/07/07 08:52:01;;;;;;;2.65;0.90;;;25.10;99.90;;;;;;4966466;28;20062;-74
2023/07/07 08:54:51;;;;;;;4.47;0.80;;;25.30;99.90;;;;;;4977498;28;20038;-73
2023/07/07 08:57:18;;;;;;;1.95;0.68;;;25.40;99.90;;;;;;4974708;28;20042;-72
2023/07/07 09:00:22;;;;;;;4.97;1.20;;;25.40;99.90;;;;;;4973596;28;20042;-75
2023/07/07 09:03:40;;;;;;;5.13;0.93;;;25.60;99.90;;;;;;4972185;28;20046;-73
2023/07/07 09:06:14;;;;;;;5.22;0.88;;;25.90;99.90;;;;;;4946825;28;20174;-74
2023/07/07 09:08:50;;;;;;;2.95;0.77;;;25.90;99.90;;;;;;4974237;28;20042;-72
2023/07/07 09:11:49;;;;;;;2.33;0.88;;;26.10;99.90;;;;;;4956305;28;20042;-74
2023/07/07 09:14:16;;;;;;;2.33;0.80;;;26.00;99.90;;;;;;4972093;28;20077;-77
2023/07/07 09:16:44;;;;;;;3.75;0.70;;;25.90;99.90;;;;;;4956581;28;20050;-74
2023/07/07 09:19:27;;;;;;;3.65;0.77;;;26.00;99.90;;;;;;4975970;28;20057;-74
2023/07/07 09:22:02;;;;;;;1.80;0.65;;;26.10;99.90;;;;;;4993040;28;20564;-75
2023/07/07 09:24:46;;;;;;;1.77;0.70;;;26.00;99.90;;;;;;4977764;28;20061;-72
2023/07/07 09:27:21;;;;;;;2.83;0.70;;;26.00;99.90;;;;;;4992784;28;20053;-74
2023/07/07 09:29:51;;;;;;;2.65;0.90;;;26.10;99.90;;;;;;4993353;28;20045;-74
2023/07/07 09:32:22;;;;;;;2.30;0.70;;;26.20;99.90;;;;;;4994773;28;20478;-74
2023/07/07 09:34:48;;;;;;;2.70;0.98;;;26.50;99.90;;;;;;4978634;28;20100;-73
2023/07/07 09:37:45;;;;;;;3.70;0.90;;;26.70;99.90;;;;;;4979186;28;20066;-75
2023/07/07 09:40:47;;;;;;;2.83;0.90;;;26.50;99.90;;;;;;4962900;28;20073;-74
2023/07/07 09:43:41;;;;;;;2.65;0.70;;;26.70;99.90;;;;;;4976471;28;20104;-74
2023/07/07 09:46:21;;;;;;;3.60;1.10;;;27.10;99.90;;;;;;4977246;28;20034;-73
2023/07/07 09:48:52;;;;;;;2.85;0.85;;;27.30;99.90;;;;;;4975909;28;20125;-74
2023/07/07 09:51:36;;;;;;;4.07;0.70;;;27.40;99.90;;;;;;4976869;28;20145;-73
2023/07/07 09:54:02;;;;;;;2.38;0.70;;;27.30;99.90;;;;;;4959920;28;20046;-73
2023/07/07 09:56:38;;;;;;;2.38;0.75;;;27.40;99.90;;;;;;4977299;28;20046;-73
2023/07/07 09:59:35;;;;;;;2.85;0.90;;;27.40;99.90;;;;;;4958916;28;20046;-76
2023/07/07 10:02:08;;;;;;;2.35;0.65;;;27.50;99.90;;;;;;4976122;28;20279;-74
2023/07/07 10:05:21;;;;;;;3.53;0.80;;;27.50;99.90;;;;;;4977566;28;20515;-73
2023/07/07 10:07:48;;;;;;;3.58;0.90;;;27.20;99.90;;;;;;4975915;28;20035;-77
2023/07/07 10:10:14;;;;;;;3.42;0.85;;;27.20;99.90;;;;;;4977457;28;20054;-74
2023/07/07 10:12:40;;;;;;;3.28;0.73;;;27.50;99.90;;;;;;4976941;28;20112;-73
2023/07/07 10:15:41;;;;;;;3.42;0.90;;;27.90;99.90;;;;;;4975773;28;20054;-75
2023/07/07 10:18:21;;;;;;;3.13;1.10;;;27.90;99.90;;;;;;4977054;28;20421;-74
2023/07/07 10:20:47;;;;;;;2.70;0.90;;;28.10;99.90;;;;;;4977698;28;20054;-71
2023/07/07 10:23:14;;;;;;;2.38;0.88;;;27.70;99.90;;;;;;4978911;28;20042;-74
2023/07/07 10:25:41;;;;;;;3.05;0.70;;;27.60;99.90;;;;;;4979660;28;20437;-76
2023/07/07 10:28:11;;;;;;;2.38;0.63;;;28.10;99.90;;;;;;4978987;28;20051;-74
2023/07/07 10:30:38;;;;;;;2.42;0.98;;;28.20;99.90;;;;;;4977702;28;20042;-74
2023/07/07 10:33:04;;;;;;;4.82;1.00;;;28.20;99.90;;;;;;4979492;28;20517;-72
2023/07/07 10:35:31;;;;;;;3.80;0.90;;;28.20;99.90;;;;;;4977719;28;20129;-75
2023/07/07 10:38:03;;;;;;;2.83;0.75;;;28.40;99.90;;;;;;4977863;28;20137;-73
2023/07/07 10:40:29;;;;;;;2.70;0.80;;;28.60;99.90;;;;;;4979795;28;20069;-74
2023/07/07 10:42:56;;;;;;;2.25;0.60;;;28.80;99.90;;;;;;4995676;28;20521;-76
2023/07/07 10:45:22;;;;;;;2.10;0.85;;;28.70;99.90;;;;;;4979978;28;20525;-73
2023/07/07 10:47:49;;;;;;;3.05;0.88;;;28.80;99.90;;;;;;4993350;28;20234;-73
2023/07/07 10:50:21;;;;;;;2.33;0.80;;;28.80;99.90;;;;;;4976106;28;20030;-74
2023/07/07 10:53:09;;;;;;;4.30;1.20;;;28.50;99.90;;;;;;4977384;28;20089;-73
2023/07/07 10:55:48;;;;;;;6.22;2.63;;;28.30;99.90;;;;;;4977995;28;20034;-73
2023/07/07 10:58:37;;;;;;;3.28;0.73;;;28.20;99.90;;;;;;4977747;28;20038;-75
2023/07/07 11:01:24;;;;;;;6.65;3.53;;;28.30;99.90;;;;;;4978546;28;20034;-71
2023/07/07 11:04:32;;;;;;;4.40;1.00;;;28.30;99.90;;;;;;4977501;28;20590;-75
2023/07/07 11:07:14;;;;;;;2.25;0.75;;;28.50;99.90;;;;;;4978240;28;20149;-72
2023/07/07 11:09:59;;;;;;;4.38;0.80;;;28.40;99.90;;;;;;4978666;28;20054;-74
2023/07/07 11:12:36;;;;;;;2.95;0.73;;;28.40;99.90;;;;;;4994999;28;20053;-74
2023/07/07 11:15:30;;;;;;;2.47;0.77;;;28.50;99.90;;;;;;4979827;28;20042;-73
2023/07/07 11:18:18;;;;;;;2.83;0.77;;;28.60;99.90;;;;;;4977572;28;20121;-73
2023/07/07 11:21:11;;;;;;;2.15;0.82;;;28.70;99.90;;;;;;4979698;28;20169;-75
2023/07/07 11:24:04;;;;;;;3.42;0.70;;;28.60;99.90;;;;;;4979926;28;20058;-73
2023/07/07 11:26:48;;;;;;;1.73;0.73;;;28.30;99.90;;;;;;4980426;28;20580;-74
2023/07/07 11:29:41;;;;;;;2.35;0.60;;;28.10;99.90;;;;;;4979112;28;20054;-73
2023/07/07 11:32:38;;;;;;;2.55;0.95;;;28.10;99.90;;;;;;4978955;28;20049;-76
2023/07/07 11:35:18;;;;;;;2.53;0.80;;;28.70;99.90;;;;;;4978024;28;20042;-74
2023/07/07 11:37:54;;;;;;;2.53;0.60;;;28.70;99.90;;;;;;4976933;28;20058;-77
2023/07/07 11:40:40;;;;;;;3.50;0.90;;;28.70;99.90;;;;;;4979133;28;20446;-72
2023/07/07 11:43:21;;;;;;;3.03;0.65;;;29.00;99.90;;;;;;4980257;28;20055;-71
2023/07/07 11:46:13;;;;;;;2.65;0.90;;;29.30;99.90;;;;;;4980131;28;20165;-73
2023/07/07 11:48:52;;;;;;;1.50;0.80;;;29.30;99.90;;;;;;4953883;28;20348;-76
2023/07/07 11:51:36;;;;;;;1.95;0.63;;;29.40;99.90;;;;;;4978091;28;20090;-73
2023/07/07 11:54:29;;;;;;;1.98;0.77;;;28.90;99.90;;;;;;4977539;28;20423;-74
2023/07/07 11:57:27;;;;;;;3.03;0.90;;;28.60;99.90;;;;;;4977912;28;20034;-73
2023/07/07 12:00:11;;;;;;;1.80;0.70;;;28.50;99.90;;;;;;4976856;28;20039;-72
2023/07/07 12:02:43;;;;;;;3.75;0.70;;;28.50;99.90;;;;;;4978048;28;20057;-74
2023/07/07 12:05:13;;;;;;;2.75;0.70;;;28.00;99.90;;;;;;4976454;28;20125;-75
2023/07/07 12:07:47;;;;;;;2.22;0.73;;;28.10;99.90;;;;;;4960644;28;20490;-73
2023/07/07 12:10:22;;;;;;;1.38;0.57;;;28.10;99.90;;;;;;4993478;28;20615;-74
2023/07/07 12:13:03;;;;;;;3.83;0.85;;;28.40;99.90;;;;;;4978274;28;20035;-73
2023/07/07 12:15:43;;;;;;;3.22;0.77;;;28.70;99.90;;;;;;4976927;28;20331;-73
2023/07/07 12:18:14;;;;;;;7.32;1.17;;;29.00;99.90;;;;;;4980152;28;20046;-73
2023/07/07 12:20:50;;;;;;;1.73;0.80;;;29.10;99.90;;;;;;4995991;28;20046;-74
2023/07/07 12:23:20;;;;;;;2.45;0.80;;;29.30;99.90;;;;;;4980813;28;20046;-73
2023/07/07 12:25:46;;;;;;;3.47;0.85;;;29.40;99.90;;;;;;4980684;28;20156;-74
2023/07/07 12:28:13;;;;;;;2.10;0.70;;;29.50;99.90;;;;;;4980025;28;20050;-74
2023/07/07 12:30:48;;;;;;;2.05;0.80;;;29.80;99.90;;;;;;4978624;28;20092;-74
2023/07/07 12:33:16;;;;;;;4.55;0.80;;;30.00;99.90;;;;;;4993687;28;20046;-75
2023/07/07 12:35:53;;;;;;;2.95;0.73;;;30.10;99.90;;;;;;4978149;28;20042;-72
2023/07/07 12:38:31;;;;;;;3.97;0.88;;;30.20;99.90;;;;;;4977843;28;20132;-73
2023/07/07 12:41:02;;;;;;;3.17;0.80;;;29.80;99.90;;;;;;4960338;28;20136;-74
2023/07/07 12:43:35;;;;;;;2.08;0.68;;;29.80;99.90;;;;;;4992692;28;20133;-73
2023/07/07 12:46:02;;;;;;;1.75;0.88;;;30.00;99.90;;;;;;4978463;28;20121;-72
2023/07/07 12:48:28;;;;;;;3.65;0.80;;;29.90;99.90;;;;;;4976213;28;20500;-76
2023/07/07 12:51:17;;;;;;;1.88;0.57;;;30.10;99.90;;;;;;4959303;28;20141;-72
2023/07/07 12:53:49;;;;;;;2.05;0.60;;;30.00;99.90;;;;;;4974629;28;20429;-74
2023/07/07 12:56:19;;;;;;;4.78;0.60;;;30.30;99.90;;;;;;4975547;28;20053;-74
2023/07/07 12:58:55;;;;;;;3.80;0.82;;;30.30;99.90;;;;;;4991935;28;20065;-74